Time;durP1;ratioP1;P1;durP2;ratioP2;P2;SDS_P1;SDS_P2;PMS_P1;PMS_P2;Temp;Humidity;BMP_temperature;BMP_pressure;BME280_temperature;BME280_humidity;BME280_pressure;Samples;Min_cycle;Max_cycle;Signal;HPM_P1;HPM_P2
2021/12/15 00:00:06;;;;;;;102.90;35.65;;;;;;;8.83;100.00;102351.81;5008292;28;20298;-70
2021/12/15 00:02:33;;;;;;;108.03;35.08;;;;;;;8.92;100.00;102366.69;5007744;28;20049;-69
2021/12/15 00:04:59;;;;;;;102.28;34.08;;;;;;;8.92;100.00;102361.31;5007919;28;20052;-69
2021/12/15 00:07:27;;;;;;;90.18;33.45;;;;;;;8.88;100.00;102366.25;5009001;28;20204;-71
2021/12/15 00:09:55;;;;;;;91.43;33.95;;;;;;;8.92;100.00;102367.50;5008619;28;20527;-72
2021/12/15 00:12:21;;;;;;;99.88;33.20;;;;;;;8.98;100.00;102365.91;5008526;28;20266;-69
2021/12/15 00:14:47;;;;;;;95.03;32.92;;;;;;;8.91;100.00;102365.03;5011982;28;20120;-70
2021/12/15 00:17:15;;;;;;;91.95;33.33;;;;;;;8.93;100.00;102363.81;5012740;28;20037;-70
2021/12/15 00:19:43;;;;;;;96.88;32.88;;;;;;;8.89;100.00;102359.88;5011756;28;21895;-70
2021/12/15 00:22:08;;;;;;;85.40;32.47;;;;;;;8.87;100.00;102363.75;5015319;28;20033;-69
2021/12/15 00:24:34;;;;;;;91.95;34.38;;;;;;;8.92;100.00;102372.84;5012146;28;20041;-69
2021/12/15 00:27:02;;;;;;;98.78;34.17;;;;;;;8.90;100.00;102363.38;5012690;28;20121;-69
2021/12/15 00:29:28;;;;;;;107.88;34.65;;;;;;;8.89;100.00;102361.72;5011948;28;20036;-72
2021/12/15 00:31:57;;;;;;;113.80;37.08;;;;;;;8.90;100.00;102360.72;5012009;28;20041;-68
2021/12/15 00:34:23;;;;;;;103.15;35.50;;;;;;;8.93;100.00;102360.31;5014935;28;20512;-69
2021/12/15 00:36:48;;;;;;;100.47;35.00;;;;;;;8.93;100.00;102374.50;5012025;28;20183;-70
2021/12/15 00:39:18;;;;;;;102.93;34.38;;;;;;;8.89;100.00;102370.59;5009875;28;20409;-69
2021/12/15 00:41:46;;;;;;;98.88;36.25;;;;;;;8.92;100.00;102370.19;5015767;28;20045;-69
2021/12/15 00:44:12;;;;;;;109.53;35.45;;;;;;;8.86;100.00;102357.56;5011932;28;20033;-69
2021/12/15 00:46:41;;;;;;;102.88;35.80;;;;;;;8.88;100.00;102371.63;5010285;28;20163;-69
2021/12/15 00:49:07;;;;;;;106.05;35.30;;;;;;;8.90;100.00;102363.38;5012249;28;20080;-70
2021/12/15 00:51:34;;;;;;;105.30;36.97;;;;;;;8.87;100.00;102364.56;5011315;28;20094;-69
2021/12/15 00:54:00;;;;;;;112.45;37.13;;;;;;;8.90;100.00;102369.56;5015399;28;20037;-70
2021/12/15 00:56:25;;;;;;;108.25;35.05;;;;;;;8.87;100.00;102366.44;5013835;28;20642;-69
2021/12/15 00:58:56;;;;;;;112.53;34.67;;;;;;;8.89;100.00;102362.56;5012323;28;20036;-71
2021/12/15 01:01:23;;;;;;;100.32;36.95;;;;;;;8.93;100.00;102361.13;5012701;28;20029;-69
2021/12/15 01:03:49;;;;;;;91.00;32.35;;;;;;;8.86;100.00;102362.09;5011947;28;20029;-69
2021/12/15 01:06:20;;;;;;;103.38;33.88;;;;;;;8.88;100.00;102362.75;5012775;28;20311;-70
2021/12/15 01:08:54;;;;;;;97.38;32.65;;;;;;;8.87;100.00;102355.72;4998568;28;20041;-69
2021/12/15 01:11:43;;;;;;;104.88;33.72;;;;;;;8.88;100.00;102360.09;5011983;28;20159;-70
2021/12/15 01:14:35;;;;;;;95.00;34.15;;;;;;;8.87;100.00;102369.09;5011537;28;20115;-69
2021/12/15 01:19:54;;;;;;;97.72;34.88;;;;;;;8.89;100.00;102367.09;5016433;28;20036;-70
2021/12/15 01:22:32;;;;;;;98.93;35.97;;;;;;;8.92;100.00;102364.00;5011846;28;20492;-70
2021/12/15 01:25:09;;;;;;;97.25;33.75;;;;;;;8.91;100.00;102360.50;5012554;28;20041;-70
2021/12/15 01:27:35;;;;;;;97.15;33.28;;;;;;;8.96;100.00;102362.59;5010988;28;20590;-69
2021/12/15 01:30:01;;;;;;;101.10;33.47;;;;;;;8.97;100.00;102361.56;5011439;28;20429;-69
2021/12/15 01:32:31;;;;;;;92.70;37.08;;;;;;;8.97;100.00;102369.59;5010474;28;21946;-70
2021/12/15 01:34:57;;;;;;;92.60;37.72;;;;;;;8.96;100.00;102362.59;5011571;28;20453;-69
2021/12/15 01:37:22;;;;;;;93.97;36.17;;;;;;;8.98;100.00;102363.22;5010352;28;20032;-69
2021/12/15 01:39:53;;;;;;;103.03;35.35;;;;;;;8.91;100.00;102360.50;5011136;28;20086;-71
2021/12/15 01:42:26;;;;;;;99.70;34.03;;;;;;;8.94;100.00;102369.97;5010386;28;20416;-70
2021/12/15 01:47:36;;;;;;;104.05;32.85;;;;;;;8.93;100.00;102369.16;5023605;28;20037;-69
2021/12/15 01:50:04;;;;;;;87.93;32.60;;;;;;;8.98;100.00;102369.41;5009551;28;20032;-70
2021/12/15 01:52:37;;;;;;;83.47;31.48;;;;;;;8.97;100.00;102366.94;5010555;28;20167;-70
2021/12/15 01:55:11;;;;;;;104.32;34.75;;;;;;;9.02;100.00;102377.03;5011710;28;20033;-70
2021/12/15 01:57:40;;;;;;;102.78;33.35;;;;;;;9.05;100.00;102366.78;5015602;28;20250;-69
2021/12/15 02:00:27;;;;;;;94.78;32.35;;;;;;;9.06;100.00;102376.44;5010565;28;20033;-69
2021/12/15 02:02:54;;;;;;;91.18;33.13;;;;;;;9.04;100.00;102370.47;5009585;28;20041;-69
2021/12/15 02:05:22;;;;;;;91.95;32.58;;;;;;;9.11;100.00;102381.19;5025155;28;20033;-69
2021/12/15 02:07:48;;;;;;;96.93;34.13;;;;;;;9.08;100.00;102371.72;5010254;28;20066;-69
2021/12/15 02:10:16;;;;;;;81.47;31.38;;;;;;;9.05;100.00;102373.97;5012000;28;20034;-70
2021/12/15 02:12:43;;;;;;;93.97;31.60;;;;;;;9.08;100.00;102386.97;5010526;28;20045;-70
2021/12/15 02:15:21;;;;;;;96.93;31.20;;;;;;;9.12;100.00;102391.75;5024570;28;20242;-69
2021/12/15 02:17:49;;;;;;;85.57;31.23;;;;;;;9.13;100.00;102387.22;5014490;28;20048;-69
2021/12/15 02:20:21;;;;;;;102.68;29.98;;;;;;;9.06;100.00;102371.09;4999464;28;20040;-70
2021/12/15 02:22:46;;;;;;;96.35;29.50;;;;;;;9.16;100.00;102384.94;5014086;28;20033;-70
2021/12/15 02:25:14;;;;;;;88.85;29.02;;;;;;;9.13;100.00;102385.34;5010154;28;20056;-69
2021/12/15 02:27:40;;;;;;;89.90;28.05;;;;;;;9.07;100.00;102374.59;5008336;28;20029;-69
2021/12/15 02:30:39;;;;;;;95.80;30.02;;;;;;;9.17;100.00;102381.25;5009883;28;20329;-70
2021/12/15 02:33:46;;;;;;;93.80;30.38;;;;;;;9.06;100.00;102375.63;5013303;28;20379;-70
2021/12/15 02:38:42;;;;;;;91.95;29.73;;;;;;;9.07;100.00;102383.47;5008747;28;20040;-70
2021/12/15 02:41:19;;;;;;;94.32;30.98;;;;;;;9.11;100.00;102387.38;5019228;28;20086;-71
2021/12/15 02:43:48;;;;;;;103.55;31.35;;;;;;;9.05;100.00;102388.19;5016200;28;20091;-69
2021/12/15 02:46:13;;;;;;;98.38;31.20;;;;;;;9.06;100.00;102389.00;5008438;28;20044;-69
2021/12/15 02:48:39;;;;;;;84.13;30.13;;;;;;;9.08;100.00;102395.81;5009333;28;20033;-69
2021/12/15 02:51:07;;;;;;;79.45;29.05;;;;;;;9.10;100.00;102396.44;5008464;28;20036;-69
2021/12/15 02:53:32;;;;;;;92.20;31.52;;;;;;;9.10;100.00;102388.41;5009735;28;20531;-69
2021/12/15 02:56:00;;;;;;;75.22;30.05;;;;;;;9.07;100.00;102394.16;5008802;28;20037;-69
2021/12/15 02:58:32;;;;;;;73.70;29.48;;;;;;;9.03;100.00;102390.22;5009223;28;20041;-68
2021/12/15 03:01:06;;;;;;;88.22;29.05;;;;;;;9.07;100.00;102396.84;5015192;28;20040;-69
2021/12/15 03:06:12;;;;;;;98.85;32.65;;;;;;;9.06;100.00;102394.38;5009275;28;20060;-69
2021/12/15 03:09:11;;;;;;;79.07;31.00;;;;;;;9.03;100.00;102394.75;5008488;28;20026;-69
2021/12/15 03:17:30;;;;;;;88.90;30.77;;;;;;;9.06;100.00;102400.56;5027386;28;20060;-69
2021/12/15 03:19:55;;;;;;;84.72;30.55;;;;;;;9.07;100.00;102398.69;5031100;28;20085;-70
2021/12/15 03:22:21;;;;;;;93.03;32.92;;;;;;;9.05;100.00;102392.72;5025257;28;20095;-69
2021/12/15 03:24:49;;;;;;;93.25;32.95;;;;;;;9.00;100.00;102395.97;5007743;28;20404;-69
2021/12/15 03:27:19;;;;;;;95.00;34.13;;;;;;;9.07;100.00;102393.34;5006265;28;20170;-69
2021/12/15 03:35:47;;;;;;;97.90;35.13;;;;;;;9.04;100.00;102396.41;5008837;28;20778;-69
2021/12/15 03:38:13;;;;;;;92.45;31.90;;;;;;;8.99;100.00;102388.97;5020010;28;20119;-72
2021/12/15 03:40:44;;;;;;;99.80;30.65;;;;;;;9.04;100.00;102394.56;5008795;28;20037;-69
2021/12/15 03:43:12;;;;;;;78.63;27.80;;;;;;;9.08;100.00;102398.50;5008212;28;20039;-69
2021/12/15 03:45:43;;;;;;;72.00;26.65;;;;;;;9.13;100.00;102404.09;5008295;28;20148;-69
2021/12/15 03:48:15;;;;;;;81.38;27.83;;;;;;;9.10;100.00;102393.75;5010178;28;20030;-69
2021/12/15 03:50:44;;;;;;;79.97;26.50;;;;;;;9.16;100.00;102410.91;5012574;28;20405;-69
2021/12/15 03:53:13;;;;;;;68.95;25.45;;;;;;;9.11;100.00;102403.44;5013124;28;20029;-69
2021/12/15 03:55:44;;;;;;;77.47;26.77;;;;;;;9.16;100.00;102403.69;5013179;28;20503;-69
2021/12/15 03:58:14;;;;;;;86.88;25.42;;;;;;;9.18;100.00;102398.13;5013151;28;20098;-68
2021/12/15 04:00:44;;;;;;;84.32;25.75;;;;;;;9.19;100.00;102402.47;5013725;28;20773;-69
2021/12/15 04:03:18;;;;;;;84.00;26.42;;;;;;;9.26;100.00;102411.38;5010055;28;20037;-71
2021/12/15 04:05:46;;;;;;;89.80;26.33;;;;;;;9.25;100.00;102407.03;4984468;28;20402;-69
2021/12/15 04:08:12;;;;;;;94.57;26.38;;;;;;;9.27;100.00;102418.38;5018625;28;20111;-69
2021/12/15 04:10:39;;;;;;;85.57;25.55;;;;;;;9.27;100.00;102423.72;5018739;28;21850;-69
2021/12/15 04:13:05;;;;;;;84.68;26.25;;;;;;;9.23;100.00;102414.44;5012854;28;20575;-69
2021/12/15 04:15:43;;;;;;;71.45;24.52;;;;;;;9.26;100.00;102416.72;5019623;28;20090;-69
2021/12/15 04:18:11;;;;;;;72.75;23.55;;;;;;;9.23;100.00;102417.94;5012536;28;20116;-69
2021/12/15 04:20:38;;;;;;;72.18;23.33;;;;;;;9.27;100.00;102421.06;5011559;28;20043;-68
2021/12/15 04:23:05;;;;;;;76.57;24.20;;;;;;;9.31;100.00;102424.19;5012746;28;20188;-69
2021/12/15 04:25:35;;;;;;;75.90;23.65;;;;;;;9.22;100.00;102413.63;5011676;28;20036;-69
2021/12/15 04:28:10;;;;;;;76.80;23.25;;;;;;;9.19;100.00;102400.59;5012901;28;20401;-69
2021/12/15 04:30:43;;;;;;;71.57;23.38;;;;;;;9.26;100.00;102424.75;5016251;28;20036;-68
2021/12/15 04:33:37;;;;;;;79.50;24.50;;;;;;;9.28;100.00;102420.03;5011422;28;20050;-68
2021/12/15 04:36:06;;;;;;;70.10;23.15;;;;;;;9.29;100.00;102431.59;5011612;28;20136;-68
2021/12/15 04:38:32;;;;;;;93.53;25.05;;;;;;;9.24;100.00;102422.28;5018552;28;20376;-72
2021/12/15 04:41:02;;;;;;;85.53;24.52;;;;;;;9.25;100.00;102423.09;5012133;28;20204;-69
2021/12/15 04:43:34;;;;;;;75.80;22.50;;;;;;;9.22;100.00;102426.19;5011919;28;20036;-69
2021/12/15 04:46:05;;;;;;;78.30;22.00;;;;;;;9.21;100.00;102413.81;5027189;28;20037;-69
2021/12/15 04:48:31;;;;;;;70.40;20.70;;;;;;;9.19;100.00;102413.19;5010136;28;20033;-69
2021/12/15 04:51:00;;;;;;;75.43;18.83;;;;;;;9.30;100.00;102422.53;5012017;28;20033;-69
2021/12/15 04:53:28;;;;;;;59.17;18.52;;;;;;;9.27;100.00;102411.16;5011664;28;20033;-69
2021/12/15 04:55:53;;;;;;;65.13;18.08;;;;;;;9.36;100.00;102414.50;5000038;28;20396;-69
2021/12/15 04:58:23;;;;;;;63.00;17.45;;;;;;;9.32;100.00;102415.13;5011714;28;20044;-69
2021/12/15 05:00:54;;;;;;;63.85;17.27;;;;;;;9.38;100.00;102436.59;5010982;28;20079;-69
2021/12/15 05:03:23;;;;;;;64.78;17.70;;;;;;;9.34;100.00;102434.47;5009287;28;20033;-68
2021/12/15 05:05:52;;;;;;;65.43;17.80;;;;;;;9.37;100.00;102429.56;5011619;28;20029;-68
2021/12/15 05:08:21;;;;;;;56.83;16.73;;;;;;;9.34;100.00;102434.47;5011815;28;20056;-69
2021/12/15 05:10:55;;;;;;;69.53;17.65;;;;;;;9.28;100.00;102436.09;5011715;28;20555;-69
2021/12/15 05:13:21;;;;;;;77.50;19.23;;;;;;;9.30;100.00;102417.16;5011865;28;20051;-69
2021/12/15 05:15:49;;;;;;;68.03;18.00;;;;;;;9.38;100.00;102430.41;5025579;28;20045;-69
2021/12/15 05:18:15;;;;;;;54.85;17.95;;;;;;;9.36;100.00;102435.94;5005311;28;20449;-69
2021/12/15 05:20:45;;;;;;;64.07;18.48;;;;;;;9.36;100.00;102438.59;5011851;28;20037;-68
2021/12/15 05:23:13;;;;;;;65.45;19.75;;;;;;;9.33;100.00;102430.97;5010031;28;20033;-68
2021/12/15 05:25:41;;;;;;;71.45;19.70;;;;;;;9.29;100.00;102434.28;5012534;28;20074;-69
2021/12/15 05:28:10;;;;;;;66.90;20.17;;;;;;;9.29;100.00;102428.91;5026277;28;20030;-69
2021/12/15 05:30:36;;;;;;;72.55;21.65;;;;;;;9.31;100.00;102435.72;5011348;28;20044;-69
2021/12/15 05:33:01;;;;;;;67.85;21.30;;;;;;;9.31;100.00;102446.44;5016361;28;21897;-68
2021/12/15 05:35:30;;;;;;;73.85;22.02;;;;;;;9.26;100.00;102430.94;5011000;28;20063;-69
2021/12/15 05:37:58;;;;;;;76.53;23.10;;;;;;;9.24;100.00;102441.03;5015924;28;20029;-68
2021/12/15 05:40:24;;;;;;;85.80;23.92;;;;;;;9.24;100.00;102430.31;5016567;28;20028;-69
2021/12/15 05:42:50;;;;;;;81.82;23.98;;;;;;;9.23;100.00;102431.34;5025826;28;20094;-69
2021/12/15 05:45:18;;;;;;;86.03;24.35;;;;;;;9.22;100.00;102428.88;4997947;28;20037;-69
2021/12/15 05:47:46;;;;;;;75.38;24.65;;;;;;;9.25;100.00;102437.31;5011157;28;20517;-69
2021/12/15 05:50:15;;;;;;;69.30;24.35;;;;;;;9.26;100.00;102452.38;5010360;28;20045;-69
2021/12/15 05:52:43;;;;;;;74.32;24.13;;;;;;;9.24;100.00;102437.53;5015621;28;20033;-69
2021/12/15 05:55:12;;;;;;;85.38;23.65;;;;;;;9.24;100.00;102445.56;5011023;28;20378;-69
2021/12/15 05:57:38;;;;;;;68.30;23.58;;;;;;;9.20;100.00;102431.75;5011522;28;20045;-69
2021/12/15 06:00:11;;;;;;;71.25;22.45;;;;;;;9.20;100.00;102439.78;5000800;28;20114;-69
2021/12/15 06:02:37;;;;;;;75.32;23.45;;;;;;;9.23;100.00;102444.72;5009630;28;20559;-68
2021/12/15 06:05:02;;;;;;;78.97;23.17;;;;;;;9.21;100.00;102448.66;5011010;28;20041;-69
2021/12/15 06:07:30;;;;;;;82.25;22.23;;;;;;;9.18;100.00;102452.53;5009919;28;20507;-68
2021/12/15 06:09:59;;;;;;;81.32;23.25;;;;;;;9.20;100.00;102460.34;5009816;28;20507;-69
2021/12/15 06:12:28;;;;;;;65.80;20.85;;;;;;;9.21;100.00;102457.50;5008260;28;20125;-69
2021/12/15 06:14:53;;;;;;;70.78;21.20;;;;;;;9.23;100.00;102455.44;5011162;28;20262;-69
2021/12/15 06:17:25;;;;;;;65.30;21.20;;;;;;;9.23;100.00;102466.16;5010296;28;20040;-68
2021/12/15 06:19:51;;;;;;;70.13;20.93;;;;;;;9.24;100.00;102457.09;5009972;28;20041;-69
2021/12/15 06:22:23;;;;;;;73.20;21.65;;;;;;;9.21;100.00;102462.84;5009594;28;20071;-69
2021/12/15 06:24:49;;;;;;;73.97;22.92;;;;;;;9.18;100.00;102468.59;5009212;28;20035;-69
2021/12/15 06:27:18;;;;;;;71.85;21.85;;;;;;;9.17;100.00;102464.25;5015313;28;20033;-69
2021/12/15 06:29:43;;;;;;;86.45;24.05;;;;;;;9.16;100.00;102459.94;5010132;28;20041;-69
2021/12/15 06:32:09;;;;;;;86.05;23.00;;;;;;;9.18;100.00;102471.25;5010403;28;21136;-69
2021/12/15 06:34:34;;;;;;;77.95;22.73;;;;;;;9.17;100.00;102472.28;5010292;28;20032;-69
2021/12/15 06:37:00;;;;;;;78.70;23.50;;;;;;;9.18;100.00;102471.25;5009710;28;20102;-69
2021/12/15 06:39:26;;;;;;;78.45;22.52;;;;;;;9.15;100.00;102478.88;5009375;28;20416;-70
2021/12/15 06:41:54;;;;;;;76.18;22.23;;;;;;;9.12;100.00;102469.41;5025454;28;20036;-69
2021/12/15 06:44:19;;;;;;;71.82;23.15;;;;;;;9.22;100.00;102477.91;5009264;28;20051;-70
2021/12/15 07:00:34;;;;;;;67.28;22.33;;;;;;;9.23;100.00;102492.94;5009914;28;20045;-69
2021/12/15 07:03:00;;;;;;;94.10;24.58;;;;;;;9.15;100.00;102486.91;5007328;28;20051;-69
2021/12/15 07:05:26;;;;;;;87.68;23.25;;;;;;;9.13;100.00;102484.44;5010078;28;20021;-70
2021/12/15 07:07:54;;;;;;;85.22;24.27;;;;;;;9.17;100.00;102493.72;5009545;28;20120;-68
2021/12/15 07:10:27;;;;;;;86.43;25.08;;;;;;;9.17;100.00;102492.88;5009573;28;20037;-69
2021/12/15 07:12:53;;;;;;;88.90;25.50;;;;;;;9.14;100.00;102494.13;5008736;28;20052;-69
2021/12/15 07:15:19;;;;;;;88.60;25.90;;;;;;;9.12;100.00;102496.16;5008917;28;20056;-69
2021/12/15 07:17:50;;;;;;;81.03;24.67;;;;;;;9.09;100.00;102493.88;5013701;28;20038;-69
2021/12/15 07:22:51;;;;;;;70.38;22.58;;;;;;;9.09;100.00;102485.84;5009070;28;20029;-69
2021/12/15 07:25:19;;;;;;;69.10;21.92;;;;;;;9.13;100.00;102491.63;5009298;28;20459;-69
2021/12/15 07:27:47;;;;;;;81.30;24.33;;;;;;;9.12;100.00;102498.84;5007752;28;20543;-69
2021/12/15 07:30:13;;;;;;;65.80;21.67;;;;;;;9.06;100.00;102496.13;5008315;28;20715;-69
2021/12/15 07:32:41;;;;;;;76.60;22.05;;;;;;;9.07;100.00;102490.56;5009648;28;20040;-69
2021/12/15 07:35:11;;;;;;;76.50;22.40;;;;;;;9.07;100.00;102495.91;5009360;28;20059;-69
2021/12/15 07:37:37;;;;;;;79.00;23.85;;;;;;;9.03;100.00;102502.66;5009341;28;20037;-70
2021/12/15 07:40:06;;;;;;;75.47;23.38;;;;;;;8.97;100.00;102498.09;5009187;28;20059;-68
2021/12/15 07:42:42;;;;;;;75.78;23.70;;;;;;;9.02;100.00;102497.50;4996875;28;20607;-69
2021/12/15 07:45:11;;;;;;;80.57;23.63;;;;;;;8.95;100.00;102494.78;5014459;28;20822;-69
2021/12/15 07:47:41;;;;;;;80.37;23.50;;;;;;;8.91;100.00;102493.53;5007373;28;20068;-68
2021/12/15 07:50:09;;;;;;;69.00;22.58;;;;;;;8.92;100.00;102495.16;5008663;28;21023;-69
2021/12/15 07:52:37;;;;;;;77.85;22.40;;;;;;;8.90;100.00;102502.56;5018671;28;20033;-69
2021/12/15 07:55:02;;;;;;;88.03;22.13;;;;;;;8.97;100.00;102512.31;5009604;28;20095;-69
2021/12/15 07:57:29;;;;;;;76.78;21.15;;;;;;;9.02;100.00;102511.72;5025588;28;20080;-70
2021/12/15 07:59:56;;;;;;;78.57;21.60;;;;;;;9.06;100.00;102512.19;5009676;28;20037;-69
2021/12/15 08:02:25;;;;;;;78.13;21.55;;;;;;;9.13;100.00;102513.06;5009281;28;20034;-69
2021/12/15 08:04:51;;;;;;;82.57;21.23;;;;;;;9.17;100.00;102522.34;5023783;28;20641;-72
2021/12/15 08:07:19;;;;;;;75.50;19.95;;;;;;;9.20;100.00;102517.44;5024890;28;20056;-69
2021/12/15 08:09:45;;;;;;;73.40;21.08;;;;;;;9.21;100.00;102511.06;5015245;28;20123;-70
2021/12/15 08:12:13;;;;;;;78.88;19.02;;;;;;;9.24;100.00;102509.84;5012505;28;20033;-69
2021/12/15 08:14:39;;;;;;;66.90;20.98;;;;;;;9.20;100.00;102519.28;5008590;28;20548;-70
2021/12/15 08:17:05;;;;;;;82.03;20.77;;;;;;;9.16;100.00;102526.88;5007376;28;20071;-70
2021/12/15 08:19:30;;;;;;;72.28;20.67;;;;;;;9.11;100.00;102523.13;5008225;28;20264;-69
2021/12/15 08:21:56;;;;;;;80.53;21.70;;;;;;;9.10;100.00;102532.19;5011599;28;20204;-70
2021/12/15 08:24:23;;;;;;;77.13;22.42;;;;;;;9.09;100.00;102517.97;5022601;28;20408;-70
2021/12/15 08:26:49;;;;;;;77.43;21.33;;;;;;;9.05;100.00;102524.75;5008171;28;20125;-70
2021/12/15 08:29:15;;;;;;;79.32;20.48;;;;;;;9.07;100.00;102529.91;5009870;28;20037;-70
2021/12/15 08:31:41;;;;;;;80.68;20.98;;;;;;;9.07;100.00;102535.25;5012100;28;20063;-70
2021/12/15 08:34:08;;;;;;;75.60;20.60;;;;;;;9.08;100.00;102528.88;5012637;28;20033;-70
2021/12/15 08:36:39;;;;;;;77.57;20.15;;;;;;;9.11;100.00;102531.97;5012587;28;20041;-70
2021/12/15 08:39:06;;;;;;;87.68;19.98;;;;;;;9.15;100.00;102527.91;5026743;28;20037;-70
2021/12/15 08:41:31;;;;;;;62.17;18.13;;;;;;;9.16;100.00;102529.56;5019353;28;20493;-70
2021/12/15 08:43:57;;;;;;;63.05;17.77;;;;;;;9.15;100.00;102527.06;5013073;28;20296;-70
2021/12/15 08:46:33;;;;;;;63.53;17.15;;;;;;;9.23;100.00;102534.97;5028253;28;20063;-70
2021/12/15 08:48:59;;;;;;;65.07;16.65;;;;;;;9.27;100.00;102531.69;5017571;28;20036;-70
2021/12/15 08:51:28;;;;;;;71.93;17.02;;;;;;;9.29;100.00;102534.19;5011956;28;20520;-70
2021/12/15 08:53:59;;;;;;;59.28;14.88;;;;;;;9.24;100.00;102528.59;5011206;28;20707;-70
2021/12/15 08:56:25;;;;;;;50.20;14.68;;;;;;;9.23;100.00;102538.47;5012149;28;20562;-69
2021/12/15 08:58:53;;;;;;;64.65;14.32;;;;;;;9.29;100.00;102544.91;5001620;28;20997;-69
2021/12/15 09:01:22;;;;;;;53.75;14.20;;;;;;;9.33;100.00;102542.66;5010066;28;20421;-69
2021/12/15 09:03:47;;;;;;;55.63;14.07;;;;;;;9.28;100.00;102540.56;5011315;28;20038;-70
2021/12/15 09:06:15;;;;;;;48.25;13.00;;;;;;;9.32;100.00;102543.69;5011840;28;21920;-71
2021/12/15 09:08:43;;;;;;;54.47;14.52;;;;;;;9.38;100.00;102559.81;5021420;28;20437;-70
2021/12/15 09:11:11;;;;;;;46.05;12.63;;;;;;;9.39;100.00;102561.47;5011375;28;20040;-69
2021/12/15 09:13:47;;;;;;;58.85;13.02;;;;;;;9.42;100.00;102565.59;5026176;28;20156;-69
2021/12/15 09:16:13;;;;;;;51.58;12.30;;;;;;;9.38;100.00;102564.34;5013207;28;20161;-71
2021/12/15 09:18:43;;;;;;;56.10;12.80;;;;;;;9.41;100.00;102563.94;5009378;28;20405;-70
2021/12/15 09:21:10;;;;;;;54.65;12.15;;;;;;;9.44;100.00;102568.91;5010872;28;20205;-68
2021/12/15 09:23:36;;;;;;;55.65;11.52;;;;;;;9.43;100.00;102564.56;5010465;28;20531;-69
2021/12/15 09:26:07;;;;;;;36.08;9.88;;;;;;;9.46;100.00;102564.19;5000009;28;20052;-69
2021/12/15 09:28:34;;;;;;;52.63;9.77;;;;;;;9.43;100.00;102567.25;5025031;28;20038;-69
2021/12/15 09:31:00;;;;;;;49.05;10.82;;;;;;;9.41;100.00;102563.94;5016180;28;20136;-70
2021/12/15 09:33:29;;;;;;;48.28;9.95;;;;;;;9.53;100.00;102575.78;5004335;28;22277;-69
2021/12/15 09:35:56;;;;;;;46.65;10.25;;;;;;;9.62;100.00;102584.50;5016638;28;20052;-72
2021/12/15 09:38:22;;;;;;;49.33;10.00;;;;;;;9.61;100.00;102575.66;5010062;28;20440;-69
2021/12/15 09:40:53;;;;;;;39.33;9.57;;;;;;;9.63;100.00;102567.41;5011943;28;20095;-70
2021/12/15 09:43:19;;;;;;;54.78;10.07;;;;;;;9.67;100.00;102574.84;5010606;28;20392;-70
2021/12/15 10:20:58;;;;;;;31.98;5.97;;;;;;;9.83;100.00;102600.50;5016908;28;20122;-75
2021/12/15 10:23:34;;;;;;;21.10;5.28;;;;;;;9.86;100.00;102604.66;5009483;28;20041;-75
2021/12/15 10:26:00;;;;;;;29.73;5.15;;;;;;;9.92;100.00;102598.50;5009203;28;22003;-75
2021/12/15 10:28:28;;;;;;;28.02;5.07;;;;;;;9.95;100.00;102598.94;5009952;28;20029;-75
2021/12/15 10:31:00;;;;;;;24.02;4.90;;;;;;;10.00;100.00;102598.34;5015335;28;20033;-75
2021/12/15 10:33:28;;;;;;;23.83;4.57;;;;;;;10.03;100.00;102598.78;5010351;28;20147;-75
2021/12/15 10:36:01;;;;;;;25.88;4.88;;;;;;;10.02;100.00;102609.72;5010431;28;20037;-74
2021/12/15 10:38:32;;;;;;;22.30;4.32;;;;;;;10.09;100.00;102603.34;5010017;28;20029;-75
2021/12/15 10:41:07;;;;;;;22.67;4.32;;;;;;;10.05;100.00;102601.25;5008691;28;20048;-77
2021/12/15 10:43:45;;;;;;;22.42;4.75;;;;;;;9.97;100.00;102596.06;5010112;28;20091;-75
2021/12/15 10:46:19;;;;;;;18.70;3.92;;;;;;;9.94;100.00;102615.25;5008880;28;20033;-75
2021/12/15 10:48:48;;;;;;;17.38;3.83;;;;;;;10.07;100.00;102616.13;5007194;28;20033;-75
2021/12/15 10:51:48;;;;;;;30.35;4.95;;;;;;;10.05;100.00;102601.25;5010060;28;20142;-77
2021/12/15 10:54:27;;;;;;;21.83;4.63;;;;;;;10.15;100.00;102614.31;5001902;28;20379;-76
2021/12/15 10:57:08;;;;;;;25.30;4.25;;;;;;;10.13;100.00;102617.19;5007945;28;20060;-75
2021/12/15 10:59:36;;;;;;;31.23;4.45;;;;;;;10.10;100.00;102610.38;5009405;28;20028;-76
2021/12/15 11:02:12;;;;;;;33.47;4.50;;;;;;;10.11;100.00;102625.44;5015461;28;20446;-75
2021/12/15 11:04:40;;;;;;;22.33;4.30;;;;;;;10.11;100.00;102621.94;5009506;28;20133;-75
2021/12/15 11:07:19;;;;;;;18.08;4.40;;;;;;;10.04;100.00;102621.91;5010801;28;20480;-75
2021/12/15 11:10:00;;;;;;;28.20;4.38;;;;;;;10.01;100.00;102624.94;5009986;28;20571;-75
2021/12/15 11:12:36;;;;;;;22.20;4.13;;;;;;;10.04;100.00;102629.09;5013075;28;20052;-75
2021/12/15 11:15:10;;;;;;;15.93;3.35;;;;;;;9.94;100.00;102628.66;5009282;28;20102;-75
2021/12/15 11:17:47;;;;;;;19.80;3.83;;;;;;;9.96;100.00;102626.59;5010992;28;20593;-76
2021/12/15 11:20:14;;;;;;;17.83;3.70;;;;;;;9.93;100.00;102629.63;5015129;28;20029;-76
2021/12/15 11:22:48;;;;;;;20.10;3.20;;;;;;;9.89;100.00;102626.53;5009758;28;20051;-77
2021/12/15 11:25:35;;;;;;;15.05;2.72;;;;;;;9.72;100.00;102614.47;5016629;28;20038;-76
2021/12/15 11:28:19;;;;;;;15.70;2.67;;;;;;;9.67;100.00;102617.72;5009423;28;20029;-77
2021/12/15 11:30:58;;;;;;;8.93;2.00;;;;;;;9.73;100.00;102616.13;5014210;28;20143;-76
2021/12/15 11:33:26;;;;;;;15.00;2.30;;;;;;;9.78;100.00;102611.84;5014997;28;20404;-75
2021/12/15 11:36:02;;;;;;;11.65;2.20;;;;;;;9.95;100.00;102619.56;5013798;28;20136;-76
2021/12/15 11:38:33;;;;;;;7.82;1.80;;;;;;;10.08;100.00;102616.94;5009978;28;20033;-76
2021/12/15 11:41:00;;;;;;;18.45;2.30;;;;;;;10.02;100.00;102618.59;5008875;28;20370;-76
2021/12/15 11:43:33;;;;;;;19.33;2.85;;;;;;;10.08;100.00;102614.25;5010737;28;20044;-77
2021/12/15 11:45:59;;;;;;;15.68;2.70;;;;;;;10.06;100.00;102616.31;5014369;28;21306;-76
2021/12/15 11:48:28;;;;;;;17.23;2.30;;;;;;;10.08;100.00;102616.94;5009735;28;20120;-76
2021/12/15 11:50:59;;;;;;;13.20;2.97;;;;;;;10.08;100.00;102612.41;5007458;28;21946;-76
2021/12/15 11:53:51;;;;;;;15.70;3.20;;;;;;;10.04;100.00;102619.22;5010826;28;20113;-75
2021/12/15 11:56:17;;;;;;;13.10;2.60;;;;;;;10.11;100.00;102608.53;5009630;28;20802;-76
2021/12/15 11:58:43;;;;;;;16.98;2.58;;;;;;;10.10;100.00;102614.91;5007573;28;21869;-75
2021/12/15 12:01:37;;;;;;;14.35;2.83;;;;;;;10.06;100.00;102619.84;5007693;28;20624;-78
2021/12/15 12:04:19;;;;;;;17.45;3.30;;;;;;;10.05;100.00;102609.31;5010400;28;20033;-78
2021/12/15 12:06:50;;;;;;;20.38;3.00;;;;;;;10.03;100.00;102614.06;5007848;28;20033;-77
2021/12/15 12:09:18;;;;;;;15.57;2.75;;;;;;;10.05;100.00;102609.31;5010268;28;20195;-77
2021/12/15 12:11:50;;;;;;;16.33;2.70;;;;;;;9.97;100.00;102604.09;5010416;28;20820;-76
2021/12/15 12:14:26;;;;;;;13.48;2.63;;;;;;;9.92;100.00;102593.13;5012463;28;20516;-75
2021/12/15 12:16:52;;;;;;;15.73;3.10;;;;;;;9.89;100.00;102593.53;5013861;28;20064;-76
2021/12/15 12:19:18;;;;;;;13.70;2.33;;;;;;;9.93;100.00;102598.28;5012804;28;20647;-75
2021/12/15 12:21:48;;;;;;;15.95;2.53;;;;;;;9.87;100.00;102601.78;4998461;28;20037;-75
2021/12/15 12:24:17;;;;;;;11.60;2.42;;;;;;;9.86;100.00;102605.50;5008105;28;20072;-76
2021/12/15 12:26:45;;;;;;;11.52;2.40;;;;;;;9.93;100.00;102608.19;5011709;28;20036;-75
2021/12/15 12:29:14;;;;;;;8.82;2.00;;;;;;;9.87;100.00;102617.03;5000696;28;20389;-75
2021/12/15 12:31:39;;;;;;;14.05;2.20;;;;;;;9.98;100.00;102611.94;5016583;28;20122;-75
2021/12/15 12:34:08;;;;;;;14.38;1.90;;;;;;;10.11;100.00;102611.22;5010519;28;20099;-75